createdAt,value
2023-09-08T00:02:13.318Z,68.28
2023-09-08T00:04:39.927Z,68.17
2023-09-08T00:07:06.431Z,68.29
2023-09-08T00:09:32.943Z,68.62
2023-09-08T00:11:59.946Z,68.50
2023-09-08T00:14:26.480Z,68.53
2023-09-08T00:16:55.767Z,68.57
2023-09-08T00:19:24.268Z,68.74
2023-09-08T00:21:51.132Z,68.74
2023-09-08T00:24:18.869Z,68.76
2023-09-08T00:26:45.382Z,68.66
2023-09-08T00:29:11.950Z,68.92
2023-09-08T00:31:38.421Z,68.96
2023-09-08T00:34:05.035Z,68.90
2023-09-08T00:36:31.635Z,69.11
2023-09-08T00:38:58.099Z,68.86
2023-09-08T00:41:24.832Z,68.72
2023-09-08T00:43:51.506Z,68.89
2023-09-08T00:46:19.020Z,69.21
2023-09-08T00:48:45.637Z,69.14
2023-09-08T00:51:12.190Z,69.13
2023-09-08T00:53:38.777Z,69.10
2023-09-08T00:56:05.505Z,69.09
2023-09-08T00:58:32.458Z,69.25
2023-09-08T01:00:59.243Z,69.45
2023-09-08T01:03:26.456Z,69.62
2023-09-08T01:05:53.757Z,69.76
2023-09-08T01:08:20.967Z,69.60
2023-09-08T01:10:47.600Z,69.28
2023-09-08T01:13:14.079Z,69.38
2023-09-08T01:15:40.653Z,69.42
2023-09-08T01:18:07.370Z,69.77
2023-09-08T01:20:57.159Z,70.04
2023-09-08T01:23:45.031Z,70.08
2023-09-08T01:26:19.112Z,70.06
2023-09-08T01:28:50.105Z,70.13
2023-09-08T01:31:17.815Z,69.91
2023-09-08T01:33:46.509Z,70.21
2023-09-08T01:36:15.219Z,70.29
2023-09-08T01:38:41.756Z,70.44
2023-09-08T01:41:08.190Z,70.58
2023-09-08T01:43:34.715Z,70.65
2023-09-08T01:46:01.226Z,70.82
2023-09-08T01:48:27.787Z,70.80
2023-09-08T01:50:54.234Z,70.70
2023-09-08T01:53:20.672Z,70.72
2023-09-08T01:55:47.082Z,70.41
2023-09-08T01:58:13.489Z,70.58
2023-09-08T02:00:39.978Z,70.75
2023-09-08T02:03:06.442Z,70.61
2023-09-08T02:05:33.069Z,70.64
2023-09-08T02:07:59.638Z,70.67
2023-09-08T02:10:26.114Z,70.52
2023-09-08T02:12:53.377Z,70.65
2023-09-08T02:15:19.966Z,70.58
2023-09-08T02:17:46.511Z,70.69
2023-09-08T02:20:13.081Z,70.51
2023-09-08T02:22:39.519Z,70.62
2023-09-08T02:25:06.507Z,70.75
2023-09-08T02:27:33.178Z,70.65
2023-09-08T02:29:59.609Z,70.64
2023-09-08T02:32:26.040Z,70.67
2023-09-08T02:34:53.869Z,70.82
2023-09-08T02:37:20.412Z,70.92
2023-09-08T02:39:46.929Z,71.01
2023-09-08T02:42:13.398Z,70.95
2023-09-08T02:44:39.858Z,71.06
2023-09-08T02:47:07.564Z,70.84
2023-09-08T02:49:34.074Z,70.78
2023-09-08T02:52:00.581Z,71.01
2023-09-08T02:54:27.061Z,71.00
2023-09-08T02:56:53.524Z,71.22
2023-09-08T02:59:20.075Z,71.41
2023-09-08T03:01:46.829Z,71.48
2023-09-08T03:04:13.366Z,71.48
2023-09-08T03:06:39.783Z,71.58
2023-09-08T03:09:06.247Z,71.61
2023-09-08T03:11:32.722Z,71.65
2023-09-08T03:13:59.311Z,71.51
2023-09-08T03:16:25.844Z,71.57
2023-09-08T03:18:52.407Z,71.65
2023-09-08T03:21:18.820Z,71.88
2023-09-08T03:23:46.677Z,71.95
2023-09-08T03:26:13.199Z,71.83
2023-09-08T03:28:40.132Z,71.91
2023-09-08T03:31:07.231Z,71.93
2023-09-08T03:33:34.105Z,71.95
2023-09-08T03:36:01.067Z,72.02
2023-09-08T03:38:27.594Z,71.91
2023-09-08T03:40:54.152Z,71.91
2023-09-08T03:43:20.653Z,71.86
2023-09-08T03:45:48.327Z,71.80
2023-09-08T03:48:15.126Z,71.75
2023-09-08T03:50:41.696Z,71.94
2023-09-08T03:53:08.203Z,71.85
2023-09-08T03:55:34.648Z,71.96
2023-09-08T03:58:01.090Z,72.08
2023-09-08T04:00:27.574Z,71.93
2023-09-08T04:02:54.110Z,72.23
2023-09-08T04:05:20.880Z,72.04
2023-09-08T04:07:47.926Z,72.03
2023-09-08T04:10:14.701Z,72.20
2023-09-08T04:12:42.094Z,72.28
2023-09-08T04:15:09.721Z,72.26
2023-09-08T04:17:37.240Z,72.39
2023-09-08T04:20:08.019Z,72.40
2023-09-08T04:22:34.950Z,72.41
2023-09-08T04:25:01.943Z,72.44
2023-09-08T04:27:28.514Z,72.57
2023-09-08T04:29:55.055Z,72.45
2023-09-08T04:32:21.553Z,72.58
2023-09-08T04:34:48.132Z,72.73
2023-09-08T04:37:15.269Z,72.81
2023-09-08T04:39:41.766Z,72.81
2023-09-08T04:42:08.316Z,72.73
2023-09-08T04:44:34.969Z,72.76
2023-09-08T04:47:01.931Z,72.75
2023-09-08T04:49:30.034Z,72.73
2023-09-08T04:51:56.686Z,72.77
2023-09-08T04:54:25.402Z,72.72
2023-09-08T04:56:51.990Z,72.82
2023-09-08T04:59:18.542Z,72.82
2023-09-08T05:01:45.013Z,72.79
2023-09-08T05:04:12.357Z,72.84
2023-09-08T05:06:38.974Z,72.83
2023-09-08T05:09:05.452Z,72.89
2023-09-08T05:11:32.087Z,73.14
2023-09-08T05:13:59.078Z,73.58
2023-09-08T05:16:40.705Z,73.75
2023-09-08T05:19:07.344Z,73.39
2023-09-08T05:21:35.238Z,73.30
2023-09-08T05:24:01.807Z,73.06
2023-09-08T05:26:28.313Z,72.81
2023-09-08T05:28:54.865Z,72.85
2023-09-08T05:31:21.787Z,72.66
2023-09-08T05:33:48.437Z,72.53
2023-09-08T05:36:16.112Z,72.33
2023-09-08T05:38:42.786Z,72.20
2023-09-08T05:41:09.287Z,71.85
2023-09-08T05:43:36.148Z,71.78
2023-09-08T05:46:02.986Z,71.53
2023-09-08T05:48:29.505Z,71.48
2023-09-08T05:50:56.054Z,71.28
2023-09-08T05:53:22.800Z,71.15
2023-09-08T05:55:49.350Z,71.17
2023-09-08T05:58:15.956Z,71.02
2023-09-08T06:00:42.626Z,70.95
2023-09-08T06:03:09.466Z,71.02
2023-09-08T06:05:36.204Z,70.79
2023-09-08T06:08:07.842Z,70.60
2023-09-08T06:10:34.858Z,70.69
2023-09-08T06:13:02.644Z,70.58
2023-09-08T06:15:29.206Z,70.51
2023-09-08T06:17:55.818Z,70.30
2023-09-08T06:20:22.619Z,70.44
2023-09-08T06:22:49.685Z,70.30
2023-09-08T06:25:16.497Z,70.28
2023-09-08T06:27:43.100Z,70.09
2023-09-08T06:30:10.080Z,70.11
2023-09-08T06:32:36.572Z,70.04
2023-09-08T06:35:03.076Z,69.86
2023-09-08T06:37:30.136Z,69.84
2023-09-08T06:39:56.602Z,69.60
2023-09-08T06:42:23.083Z,69.76
2023-09-08T06:44:49.538Z,69.72
2023-09-08T06:47:16.889Z,69.74
2023-09-08T06:49:43.418Z,69.86
2023-09-08T06:52:09.922Z,69.93
2023-09-08T06:54:36.364Z,70.06
2023-09-08T06:57:02.974Z,70.09
2023-09-08T06:59:29.414Z,70.03
2023-09-08T07:01:56.077Z,70.10
2023-09-08T07:04:22.884Z,70.10
2023-09-08T07:06:51.100Z,70.13
2023-09-08T07:09:18.201Z,69.83
2023-09-08T07:11:44.627Z,69.91
2023-09-08T07:14:11.071Z,69.88
2023-09-08T07:16:37.651Z,69.65
2023-09-08T07:19:05.042Z,69.80
2023-09-08T07:21:31.693Z,69.72
2023-09-08T07:23:59.324Z,69.52
2023-09-08T07:26:25.798Z,69.55
2023-09-08T07:28:52.284Z,69.61
2023-09-08T07:31:19.061Z,69.50
2023-09-08T07:33:45.586Z,69.31
2023-09-08T07:36:12.780Z,69.62
2023-09-08T07:38:39.251Z,69.57
2023-09-08T07:41:06.723Z,69.38
2023-09-08T07:43:33.428Z,69.49
2023-09-08T07:46:00.017Z,69.71
2023-09-08T07:48:26.622Z,69.37
2023-09-08T07:50:53.336Z,69.24
2023-09-08T07:53:19.830Z,69.12
2023-09-08T07:55:46.278Z,69.45
2023-09-08T07:58:12.712Z,69.19
2023-09-08T08:00:39.158Z,69.63
2023-09-08T08:03:07.203Z,69.73
2023-09-08T08:05:33.833Z,69.49
2023-09-08T08:08:00.441Z,69.51
2023-09-08T08:10:27.012Z,69.60
2023-09-08T08:12:53.794Z,69.54
2023-09-08T08:15:24.472Z,69.62
2023-09-08T08:17:51.046Z,69.68
2023-09-08T08:20:20.646Z,69.46
2023-09-08T08:22:47.691Z,69.84
2023-09-08T08:25:14.330Z,69.44
2023-09-08T08:27:41.543Z,69.88
2023-09-08T08:30:08.520Z,69.90
2023-09-08T08:32:35.084Z,69.51
2023-09-08T08:35:01.548Z,69.50
2023-09-08T08:37:28.204Z,69.08
2023-09-08T08:39:54.650Z,69.24
2023-09-08T08:42:23.408Z,69.15
2023-09-08T08:44:51.154Z,68.91
2023-09-08T08:47:18.340Z,68.65
2023-09-08T08:49:47.785Z,68.49
2023-09-08T08:52:16.242Z,68.58
2023-09-08T08:54:43.939Z,68.44
2023-09-08T08:57:12.237Z,68.38
2023-09-08T08:59:38.827Z,67.99
2023-09-08T09:02:06.203Z,68.06
2023-09-08T09:04:33.418Z,67.84
2023-09-08T09:07:00.721Z,67.04
2023-09-08T09:09:27.301Z,67.01
2023-09-08T09:11:53.858Z,66.93
2023-09-08T09:14:20.665Z,66.35
2023-09-08T09:16:48.884Z,66.93
2023-09-08T09:19:26.471Z,66.72
2023-09-08T09:21:55.619Z,66.05
2023-09-08T09:24:34.045Z,65.97
2023-09-08T09:27:06.752Z,65.92
2023-09-08T09:29:35.369Z,65.80
2023-09-08T09:32:09.614Z,65.12
2023-09-08T09:34:36.218Z,65.56
2023-09-08T09:37:06.204Z,65.36
2023-09-08T09:39:33.156Z,64.97
2023-09-08T09:41:59.639Z,64.95
2023-09-08T09:44:26.763Z,64.62
2023-09-08T09:46:54.204Z,64.14
2023-09-08T09:49:21.416Z,63.47
2023-09-08T09:51:50.373Z,63.43
2023-09-08T09:54:17.561Z,62.76
2023-09-08T09:56:46.918Z,62.75
2023-09-08T09:59:14.678Z,62.40
2023-09-08T10:01:43.406Z,62.95
2023-09-08T10:04:10.697Z,62.73
2023-09-08T10:06:39.160Z,62.69
2023-09-08T10:09:14.332Z,62.67
2023-09-08T10:11:50.637Z,62.34
2023-09-08T10:14:19.231Z,61.69
2023-09-08T10:16:50.613Z,61.46
2023-09-08T10:19:18.146Z,61.14
2023-09-08T10:21:48.262Z,61.43
2023-09-08T10:24:35.046Z,61.85
2023-09-08T10:27:12.246Z,61.19
2023-09-08T10:29:39.779Z,60.10
2023-09-08T10:32:09.008Z,58.98
2023-09-08T10:34:37.195Z,59.09
2023-09-08T10:37:06.565Z,58.93
2023-09-08T10:39:39.957Z,59.48
2023-09-08T10:42:19.594Z,59.48
2023-09-08T10:44:48.865Z,57.75
2023-09-08T10:47:19.100Z,57.29
2023-09-08T10:49:46.569Z,56.84
2023-09-08T10:52:13.977Z,56.90
2023-09-08T10:54:44.524Z,56.17
2023-09-08T10:57:15.808Z,55.79
2023-09-08T11:00:00.867Z,56.34
2023-09-08T11:02:49.104Z,56.22
2023-09-08T11:05:16.875Z,56.29
2023-09-08T11:07:47.152Z,55.93
2023-09-08T11:10:14.252Z,56.51
2023-09-08T11:12:41.029Z,56.87
2023-09-08T11:15:09.732Z,56.46
2023-09-08T11:17:41.001Z,55.81
2023-09-08T11:20:10.086Z,56.16
2023-09-08T11:22:37.699Z,55.79
2023-09-08T11:25:07.902Z,55.40
2023-09-08T11:27:34.646Z,55.43
2023-09-08T11:30:01.442Z,55.32
2023-09-08T11:32:35.214Z,55.05
2023-09-08T11:35:08.026Z,55.26
2023-09-08T11:37:38.543Z,54.98
2023-09-08T11:40:10.465Z,53.70
2023-09-08T11:42:37.053Z,53.48
2023-09-08T11:45:05.200Z,51.91
2023-09-08T11:47:32.962Z,52.51
2023-09-08T11:49:59.798Z,52.46
2023-09-08T11:52:26.319Z,52.25
2023-09-08T11:55:06.493Z,52.89
2023-09-08T11:57:34.650Z,52.80
2023-09-08T12:00:02.871Z,52.21
2023-09-08T12:02:29.516Z,52.49
2023-09-08T12:04:56.196Z,52.01
2023-09-08T12:07:22.626Z,50.31
2023-09-08T12:09:49.208Z,50.28
2023-09-08T12:12:15.665Z,49.40
2023-09-08T12:14:45.266Z,49.71
2023-09-08T12:17:18.005Z,49.72
2023-09-08T12:19:44.763Z,49.24
2023-09-08T12:22:18.743Z,48.73
2023-09-08T12:24:52.342Z,48.28
2023-09-08T12:27:20.584Z,47.72
2023-09-08T12:29:53.464Z,46.53
2023-09-08T12:32:20.026Z,45.58
2023-09-08T12:34:46.758Z,44.87
2023-09-08T12:37:13.238Z,44.14
2023-09-08T12:39:40.385Z,43.88
2023-09-08T12:42:06.850Z,43.30
2023-09-08T12:44:33.897Z,42.56
2023-09-08T12:47:00.400Z,41.98
2023-09-08T12:49:26.904Z,41.23
2023-09-08T12:51:53.349Z,40.75
2023-09-08T12:54:19.768Z,39.62
2023-09-08T12:56:46.219Z,38.23
2023-09-08T12:59:12.679Z,38.57
2023-09-08T13:01:39.154Z,38.52
2023-09-08T13:04:05.983Z,38.03
2023-09-08T13:06:33.909Z,38.15
2023-09-08T13:09:00.359Z,36.66
2023-09-08T13:11:26.919Z,37.50
2023-09-08T13:13:55.103Z,37.46
2023-09-08T13:16:21.710Z,37.97
2023-09-08T13:18:48.580Z,38.08
2023-09-08T13:21:15.075Z,37.50
2023-09-08T13:23:41.500Z,37.72
2023-09-08T13:26:07.954Z,38.00
2023-09-08T13:28:34.619Z,38.54
2023-09-08T13:31:01.386Z,39.19
2023-09-08T13:33:27.892Z,39.89
2023-09-08T13:35:54.319Z,39.86
2023-09-08T13:38:20.844Z,39.80
2023-09-08T13:40:47.286Z,39.75
2023-09-08T13:43:13.706Z,39.12
2023-09-08T13:45:40.109Z,39.31
2023-09-08T13:48:07.829Z,39.28
2023-09-08T13:50:35.243Z,39.23
2023-09-08T13:53:04.646Z,38.91
2023-09-08T13:55:37.676Z,38.54
2023-09-08T13:58:08.867Z,38.39
2023-09-08T14:00:38.582Z,37.65
2023-09-08T14:03:06.780Z,37.55
2023-09-08T14:05:37.005Z,37.88
2023-09-08T14:08:09.393Z,37.50
2023-09-08T14:10:52.165Z,37.43
2023-09-08T14:13:24.690Z,38.47
2023-09-08T14:15:51.349Z,38.46
2023-09-08T14:18:17.770Z,38.46
2023-09-08T14:20:44.440Z,38.21
2023-09-08T14:23:10.969Z,38.83
2023-09-08T14:25:37.413Z,39.23
2023-09-08T14:28:05.567Z,40.42
2023-09-08T14:30:33.506Z,41.18
2023-09-08T14:33:00.008Z,41.81
2023-09-08T14:35:26.919Z,42.19
2023-09-08T14:37:53.391Z,42.83
2023-09-08T14:40:19.845Z,43.07
2023-09-08T14:42:46.269Z,43.47
2023-09-08T14:45:13.404Z,44.47
2023-09-08T14:47:39.983Z,44.30
2023-09-08T14:50:07.168Z,45.13
2023-09-08T14:52:33.599Z,46.09
2023-09-08T14:55:00.932Z,46.52
2023-09-08T14:57:27.408Z,46.97
2023-09-08T14:59:56.508Z,46.86
2023-09-08T15:02:23.965Z,46.90
2023-09-08T15:04:50.505Z,47.42
2023-09-08T15:07:17.014Z,46.95
2023-09-08T15:09:43.488Z,47.62
2023-09-08T15:12:10.334Z,47.19
2023-09-08T15:14:36.771Z,47.47
2023-09-08T15:17:04.099Z,47.74
2023-09-08T15:19:30.566Z,47.89
2023-09-08T15:21:56.980Z,48.03
2023-09-08T15:24:23.465Z,48.33
2023-09-08T15:26:51.163Z,47.84
2023-09-08T15:29:18.477Z,48.20
2023-09-08T15:31:45.044Z,48.12
2023-09-08T15:34:13.129Z,48.03
2023-09-08T15:36:39.567Z,47.82
2023-09-08T15:39:06.094Z,48.17
2023-09-08T15:41:32.763Z,48.89
2023-09-08T15:43:59.257Z,49.18
2023-09-08T15:46:26.887Z,48.72
2023-09-08T15:48:53.388Z,48.82
2023-09-08T15:51:19.853Z,48.93
2023-09-08T15:53:47.228Z,48.82
2023-09-08T15:56:13.718Z,48.72
2023-09-08T15:58:40.408Z,48.81
2023-09-08T16:01:07.466Z,49.05
2023-09-08T16:03:34.856Z,48.83
2023-09-08T16:06:01.581Z,48.94
2023-09-08T16:08:28.044Z,49.12
2023-09-08T16:10:54.599Z,48.46
2023-09-08T16:13:21.368Z,48.75
2023-09-08T16:15:47.969Z,49.13
2023-09-08T16:18:14.474Z,48.69
2023-09-08T16:20:41.016Z,49.27
2023-09-08T16:23:08.463Z,49.06
2023-09-08T16:25:35.083Z,48.90
2023-09-08T16:28:01.661Z,49.03
2023-09-08T16:30:29.969Z,49.11
2023-09-08T16:32:56.547Z,48.55
2023-09-08T16:35:23.056Z,48.51
2023-09-08T16:37:49.644Z,48.76
2023-09-08T16:40:16.467Z,48.47
2023-09-08T16:42:42.893Z,48.09
2023-09-08T16:45:09.808Z,48.23
2023-09-08T16:47:36.346Z,48.15
2023-09-08T16:50:04.461Z,48.64
2023-09-08T16:52:30.892Z,48.67
2023-09-08T16:54:57.418Z,49.09
2023-09-08T16:57:24.024Z,49.82
2023-09-08T16:59:51.435Z,49.96
2023-09-08T17:02:18.010Z,49.98
2023-09-08T17:04:46.780Z,48.75
2023-09-08T17:07:13.661Z,49.10
2023-09-08T17:09:40.179Z,49.34
2023-09-08T17:12:08.258Z,49.26
2023-09-08T17:14:35.753Z,49.70
2023-09-08T17:17:02.461Z,49.95
2023-09-08T17:19:28.996Z,50.12
2023-09-08T17:21:55.548Z,50.76
2023-09-08T17:24:21.997Z,50.66
2023-09-08T17:26:49.551Z,50.85
2023-09-08T17:29:15.985Z,51.54
2023-09-08T17:31:42.424Z,51.98
2023-09-08T17:34:09.061Z,52.19
2023-09-08T17:36:35.588Z,52.62
2023-09-08T17:39:02.015Z,52.95
2023-09-08T17:41:28.454Z,53.24
2023-09-08T17:43:54.877Z,53.46
2023-09-08T17:46:21.706Z,53.52
2023-09-08T17:48:48.354Z,54.23
2023-09-08T17:51:14.813Z,54.44
2023-09-08T17:53:41.245Z,54.97
2023-09-08T17:56:07.707Z,55.25
2023-09-08T17:58:34.143Z,55.22
2023-09-08T18:01:00.654Z,55.64
2023-09-08T18:03:27.278Z,55.70
2023-09-08T18:05:53.802Z,56.01
2023-09-08T18:08:20.263Z,56.76
2023-09-08T18:10:47.682Z,56.84
2023-09-08T18:13:14.309Z,57.16
2023-09-08T18:15:40.842Z,57.45
2023-09-08T18:18:07.427Z,57.63
2023-09-08T18:20:36.749Z,58.39
2023-09-08T18:23:03.633Z,58.33
2023-09-08T18:25:30.103Z,58.67
2023-09-08T18:27:56.627Z,58.99
2023-09-08T18:30:23.135Z,59.35
2023-09-08T18:32:49.638Z,59.65
2023-09-08T18:35:16.291Z,59.80
2023-09-08T18:37:42.958Z,59.87
2023-09-08T18:40:11.514Z,60.30
2023-09-08T18:42:38.592Z,60.57
2023-09-08T18:45:05.611Z,60.98
2023-09-08T18:47:32.162Z,61.23
2023-09-08T18:49:58.611Z,61.50
2023-09-08T18:52:25.101Z,61.84
2023-09-08T18:54:51.595Z,61.82
2023-09-08T18:57:18.022Z,61.79
2023-09-08T18:59:44.464Z,61.91
2023-09-08T19:02:10.932Z,62.02
2023-09-08T19:04:37.595Z,62.21
2023-09-08T19:07:04.220Z,62.11
2023-09-08T19:09:30.659Z,62.53
2023-09-08T19:11:57.111Z,62.79
2023-09-08T19:14:27.939Z,62.84
2023-09-08T19:16:55.305Z,62.92
2023-09-08T19:19:22.013Z,63.33
2023-09-08T19:21:48.654Z,63.26
2023-09-08T19:24:16.869Z,63.37
2023-09-08T19:26:43.368Z,63.62
2023-09-08T19:29:09.886Z,63.85
2023-09-08T19:31:36.522Z,63.91
2023-09-08T19:34:03.132Z,64.03
2023-09-08T19:36:29.601Z,64.23
2023-09-08T19:38:56.059Z,64.30
2023-09-08T19:41:25.082Z,64.16
2023-09-08T19:43:51.943Z,64.59
2023-09-08T19:46:18.538Z,64.83
2023-09-08T19:48:45.164Z,64.84
2023-09-08T19:51:11.979Z,65.23
2023-09-08T19:53:38.782Z,65.35
2023-09-08T19:56:05.427Z,65.48
2023-09-08T19:58:31.945Z,65.62
2023-09-08T20:01:10.756Z,66.26
2023-09-08T20:03:37.638Z,65.61
2023-09-08T20:06:05.059Z,65.80
2023-09-08T20:08:32.557Z,65.95
2023-09-08T20:10:59.176Z,65.93
2023-09-08T20:13:25.663Z,66.07
2023-09-08T20:16:18.636Z,66.72
2023-09-08T20:18:45.172Z,66.15
2023-09-08T20:21:11.829Z,66.60
2023-09-08T20:23:38.845Z,66.42
2023-09-08T20:26:05.555Z,66.44
2023-09-08T20:28:33.046Z,66.75
2023-09-08T20:31:13.751Z,66.70
2023-09-08T20:33:42.679Z,66.49
2023-09-08T20:36:09.762Z,66.95
2023-09-08T20:38:36.433Z,66.94
2023-09-08T20:41:02.938Z,67.15
2023-09-08T20:43:29.545Z,67.15
2023-09-08T20:45:57.695Z,67.30
2023-09-08T20:48:24.207Z,67.38
2023-09-08T20:50:59.769Z,67.86
2023-09-08T20:53:26.292Z,67.73
2023-09-08T20:55:52.777Z,67.51
2023-09-08T20:58:19.234Z,67.89
2023-09-08T21:00:45.749Z,68.20
2023-09-08T21:03:12.287Z,68.11
2023-09-08T21:05:38.846Z,68.45
2023-09-08T21:08:05.669Z,68.33
2023-09-08T21:10:32.904Z,68.84
2023-09-08T21:12:59.341Z,68.74
2023-09-08T21:15:25.859Z,68.69
2023-09-08T21:17:52.438Z,68.36
2023-09-08T21:20:18.873Z,68.55
2023-09-08T21:22:45.340Z,68.94
2023-09-08T21:25:11.771Z,69.07
2023-09-08T21:27:38.196Z,68.94
2023-09-08T21:30:05.177Z,68.80
2023-09-08T21:32:31.771Z,68.67
2023-09-08T21:34:58.252Z,68.82
2023-09-08T21:37:24.681Z,68.90
2023-09-08T21:39:51.110Z,69.64
2023-09-08T21:42:17.608Z,69.65
2023-09-08T21:44:44.110Z,70.44
2023-09-08T21:47:10.556Z,70.60
2023-09-08T21:49:37.056Z,70.69
2023-09-08T21:52:03.927Z,70.88
2023-09-08T21:54:30.374Z,71.27
2023-09-08T21:56:56.809Z,71.59
2023-09-08T21:59:23.313Z,71.62
2023-09-08T22:01:49.799Z,72.06
2023-09-08T22:04:16.808Z,72.26
2023-09-08T22:06:43.831Z,72.89
2023-09-08T22:09:10.285Z,73.12
2023-09-08T22:11:36.909Z,73.11
2023-09-08T22:14:03.676Z,73.48
2023-09-08T22:16:30.188Z,73.48
2023-09-08T22:18:57.001Z,73.76
2023-09-08T22:21:23.554Z,73.75
2023-09-08T22:23:51.737Z,74.29
2023-09-08T22:26:19.808Z,74.30
2023-09-08T22:28:50.304Z,74.59
2023-09-08T22:31:17.322Z,74.41
2023-09-08T22:33:44.142Z,74.37
2023-09-08T22:36:10.846Z,74.46
2023-09-08T22:38:37.547Z,74.38
2023-09-08T22:41:03.981Z,74.96
2023-09-08T22:43:30.432Z,74.87
2023-09-08T22:45:56.920Z,74.91
2023-09-08T22:48:23.909Z,75.26
2023-09-08T22:50:50.995Z,75.14
2023-09-08T22:53:18.737Z,75.54
2023-09-08T22:55:45.648Z,75.54
2023-09-08T22:58:14.788Z,75.76
2023-09-08T23:00:41.868Z,75.78
2023-09-08T23:03:09.640Z,75.50
2023-09-08T23:08:03.059Z,75.56
2023-09-08T23:10:29.632Z,75.79
2023-09-08T23:12:56.132Z,75.75
2023-09-08T23:15:23.076Z,76.15
2023-09-08T23:17:49.611Z,76.21
2023-09-08T23:20:16.663Z,75.91
2023-09-08T23:22:44.553Z,76.16
2023-09-08T23:25:11.487Z,76.27
2023-09-08T23:27:38.517Z,76.45
2023-09-08T23:30:06.166Z,76.52
2023-09-08T23:32:32.879Z,76.40
2023-09-08T23:35:00.696Z,76.23
2023-09-08T23:37:27.394Z,76.26
2023-09-08T23:39:53.863Z,76.25
2023-09-08T23:42:20.439Z,76.58
2023-09-08T23:44:46.908Z,76.85
2023-09-08T23:47:13.829Z,76.66
2023-09-08T23:49:40.441Z,76.80
2023-09-08T23:52:06.880Z,77.14
2023-09-08T23:54:33.299Z,77.04
2023-09-08T23:57:00.706Z,77.19
2023-09-08T23:59:27.355Z,77.54
